Главная страница
METAR-TAF:

METAR-TAF

Аэропорты :

Джинна

Карачи, Пакистан

широта: 24-54N, долгота: 067-08E, высота над уровнем моря: 21 м

Текущие метеонаблюдения

Эта сводка был подготовлена 31 минут назад, в 09:55 UTC
Ветер 10 Узел от юго-западный
Температура 33°C
Влажность 56%
Давление 996 hPa
Видимость: 4000 м
Отдельные облака на высоте 3000 фута
Рассеянная облачность на высоте 10000 фута
мгла

METAR: OPKC 160955Z 22010KT 4000 HZ SCT030 BKN100 33/23 Q0996 NOSIG

Время: 15:26 (10:26 UTC)

Прогноз

Эта сводка был подготовлена 6 часа и 56 минут назад, в 03:30 UTC
Прогноз действительный с 16-го 06 UTC до 16-го 15 UTC
Ветер 5 Узел от юго-западный с порывами до 15 Узел
Видимость: 6000 м
Рассеянная облачность на высоте 2500 фута

TAF: OPKC 160330Z 1606/1615 23005G15KT 6000 BKN025

Метеонаблюдения и прогнозы для более 4000 аэропортов (сводки METAR и TAF).

Имеющиеся станции представлены на карте желтыми и красными точками.

Чтобы увидеть название станции, наведите на нее мышь.

Затем щелкните, чтобы увидеть метеонаблюдения и метеопрогнозы.

Управление картой: чтобы увеличить масштаб, щелкните зеленые кнопки с черным крестиком; чтобы уменьшить масштаб, щелкните зеленую кнопку с тире; для просмотра соседних карт щелкайте зеленые стрелки.


METAR-TAF: